sensor_id;sensor_type;location;lat;lon;timestamp;temperature;humidity
70830;SHT30;58451;51.550;7.208;2022-07-29T00:01:03;19.07;48.16
70830;SHT30;58451;51.550;7.208;2022-07-29T00:03:30;19.04;48.07
70830;SHT30;58451;51.550;7.208;2022-07-29T00:05:57;19.01;48.06
70830;SHT30;58451;51.550;7.208;2022-07-29T00:08:26;18.99;48.11
70830;SHT30;58451;51.550;7.208;2022-07-29T00:10:53;18.95;48.16
70830;SHT30;58451;51.550;7.208;2022-07-29T00:13:19;18.91;48.29
70830;SHT30;58451;51.550;7.208;2022-07-29T00:15:58;18.88;48.26
70830;SHT30;58451;51.550;7.208;2022-07-29T00:18:30;18.84;48.26
70830;SHT30;58451;51.550;7.208;2022-07-29T00:20:58;18.81;48.35
70830;SHT30;58451;51.550;7.208;2022-07-29T00:23:25;18.77;48.55
70830;SHT30;58451;51.550;7.208;2022-07-29T00:25:52;18.75;48.88
70830;SHT30;58451;51.550;7.208;2022-07-29T00:28:19;18.72;48.68
70830;SHT30;58451;51.550;7.208;2022-07-29T00:30:46;18.70;48.77
70830;SHT30;58451;51.550;7.208;2022-07-29T00:33:13;18.68;49.02
70830;SHT30;58451;51.550;7.208;2022-07-29T00:35:40;18.67;48.82
70830;SHT30;58451;51.550;7.208;2022-07-29T00:38:13;18.66;48.86
70830;SHT30;58451;51.550;7.208;2022-07-29T00:40:44;18.65;48.93
70830;SHT30;58451;51.550;7.208;2022-07-29T00:43:13;18.64;48.90
70830;SHT30;58451;51.550;7.208;2022-07-29T00:45:41;18.64;48.93
70830;SHT30;58451;51.550;7.208;2022-07-29T00:48:09;18.63;49.05
70830;SHT30;58451;51.550;7.208;2022-07-29T00:50:37;18.61;49.03
70830;SHT30;58451;51.550;7.208;2022-07-29T00:53:07;18.61;49.23
70830;SHT30;58451;51.550;7.208;2022-07-29T00:55:35;18.59;49.27
70830;SHT30;58451;51.550;7.208;2022-07-29T00:58:02;18.57;49.30
70830;SHT30;58451;51.550;7.208;2022-07-29T01:00:30;18.54;49.37
70830;SHT30;58451;51.550;7.208;2022-07-29T01:02:57;18.51;49.38
70830;SHT30;58451;51.550;7.208;2022-07-29T01:05:25;18.48;49.47
70830;SHT30;58451;51.550;7.208;2022-07-29T01:08:15;18.44;49.44
70830;SHT30;58451;51.550;7.208;2022-07-29T01:10:43;18.41;49.63
70830;SHT30;58451;51.550;7.208;2022-07-29T01:13:13;18.37;49.75
70830;SHT30;58451;51.550;7.208;2022-07-29T01:15:46;18.32;49.74
70830;SHT30;58451;51.550;7.208;2022-07-29T01:18:34;18.27;49.90
70830;SHT30;58451;51.550;7.208;2022-07-29T01:26:58;18.12;50.24
70830;SHT30;58451;51.550;7.208;2022-07-29T01:29:36;18.06;50.16
70830;SHT30;58451;51.550;7.208;2022-07-29T01:32:18;18.01;50.46
70830;SHT30;58451;51.550;7.208;2022-07-29T01:37:44;17.92;50.48
70830;SHT30;58451;51.550;7.208;2022-07-29T01:40:32;17.88;50.68
70830;SHT30;58451;51.550;7.208;2022-07-29T01:43:10;17.84;50.80
70830;SHT30;58451;51.550;7.208;2022-07-29T01:45:45;17.81;50.96
70830;SHT30;58451;51.550;7.208;2022-07-29T01:54:02;17.73;51.82
70830;SHT30;58451;51.550;7.208;2022-07-29T01:56:37;17.70;51.85
70830;SHT30;58451;51.550;7.208;2022-07-29T01:59:07;17.68;51.93
70830;SHT30;58451;51.550;7.208;2022-07-29T02:01:37;17.67;51.73
70830;SHT30;58451;51.550;7.208;2022-07-29T02:04:09;17.65;51.70
70830;SHT30;58451;51.550;7.208;2022-07-29T02:06:57;17.64;51.79
70830;SHT30;58451;51.550;7.208;2022-07-29T02:09:29;17.61;51.88
70830;SHT30;58451;51.550;7.208;2022-07-29T02:11:59;17.59;51.88
70830;SHT30;58451;51.550;7.208;2022-07-29T02:14:49;17.58;51.95
70830;SHT30;58451;51.550;7.208;2022-07-29T02:17:21;17.56;52.01
70830;SHT30;58451;51.550;7.208;2022-07-29T02:19:58;17.53;52.09
70830;SHT30;58451;51.550;7.208;2022-07-29T02:22:29;17.51;52.14
70830;SHT30;58451;51.550;7.208;2022-07-29T02:24:59;17.49;52.21
70830;SHT30;58451;51.550;7.208;2022-07-29T02:27:29;17.47;52.92
70830;SHT30;58451;51.550;7.208;2022-07-29T02:30:02;17.45;52.73
70830;SHT30;58451;51.550;7.208;2022-07-29T02:32:31;17.43;52.70
70830;SHT30;58451;51.550;7.208;2022-07-29T02:35:01;17.41;52.65
70830;SHT30;58451;51.550;7.208;2022-07-29T02:37:30;17.41;52.69
70830;SHT30;58451;51.550;7.208;2022-07-29T02:39:59;17.40;52.76
70830;SHT30;58451;51.550;7.208;2022-07-29T02:42:27;17.40;52.90
70830;SHT30;58451;51.550;7.208;2022-07-29T02:44:57;17.39;52.92
70830;SHT30;58451;51.550;7.208;2022-07-29T02:47:30;17.37;53.09
70830;SHT30;58451;51.550;7.208;2022-07-29T02:53:02;17.32;53.36
70830;SHT30;58451;51.550;7.208;2022-07-29T02:55:43;17.28;53.33
70830;SHT30;58451;51.550;7.208;2022-07-29T03:01:03;17.22;53.47
70830;SHT30;58451;51.550;7.208;2022-07-29T03:03:47;17.18;53.53
70830;SHT30;58451;51.550;7.208;2022-07-29T03:06:18;17.16;53.66
70830;SHT30;58451;51.550;7.208;2022-07-29T03:09:04;17.15;53.60
70830;SHT30;58451;51.550;7.208;2022-07-29T03:11:38;17.14;53.92
70830;SHT30;58451;51.550;7.208;2022-07-29T03:14:18;17.12;53.79
70830;SHT30;58451;51.550;7.208;2022-07-29T03:16:47;17.10;53.86
70830;SHT30;58451;51.550;7.208;2022-07-29T03:19:16;17.10;54.10
70830;SHT30;58451;51.550;7.208;2022-07-29T03:21:44;17.09;54.12
70830;SHT30;58451;51.550;7.208;2022-07-29T03:24:24;17.07;54.19
70830;SHT30;58451;51.550;7.208;2022-07-29T03:26:54;17.07;54.19
70830;SHT30;58451;51.550;7.208;2022-07-29T03:29:23;17.07;54.27
70830;SHT30;58451;51.550;7.208;2022-07-29T03:31:59;17.06;54.39
70830;SHT30;58451;51.550;7.208;2022-07-29T03:34:33;17.04;54.56
70830;SHT30;58451;51.550;7.208;2022-07-29T03:37:02;17.05;54.57
70830;SHT30;58451;51.550;7.208;2022-07-29T03:39:33;17.03;54.68
70830;SHT30;58451;51.550;7.208;2022-07-29T03:42:07;17.03;54.95
70830;SHT30;58451;51.550;7.208;2022-07-29T03:44:38;17.04;55.84
70830;SHT30;58451;51.550;7.208;2022-07-29T03:47:09;17.05;56.92
70830;SHT30;58451;51.550;7.208;2022-07-29T03:49:41;17.08;56.97
70830;SHT30;58451;51.550;7.208;2022-07-29T03:52:10;17.10;56.80
70830;SHT30;58451;51.550;7.208;2022-07-29T03:54:37;17.14;56.43
70830;SHT30;58451;51.550;7.208;2022-07-29T03:57:05;17.16;55.90
70830;SHT30;58451;51.550;7.208;2022-07-29T03:59:34;17.20;55.77
70830;SHT30;58451;51.550;7.208;2022-07-29T04:02:02;17.21;55.90
70830;SHT30;58451;51.550;7.208;2022-07-29T04:04:35;17.25;55.96
70830;SHT30;58451;51.550;7.208;2022-07-29T04:07:02;17.28;55.60
70830;SHT30;58451;51.550;7.208;2022-07-29T04:09:30;17.29;55.72
70830;SHT30;58451;51.550;7.208;2022-07-29T04:11:57;17.29;55.52
70830;SHT30;58451;51.550;7.208;2022-07-29T04:14:29;17.31;55.69
70830;SHT30;58451;51.550;7.208;2022-07-29T04:16:59;17.32;55.69
70830;SHT30;58451;51.550;7.208;2022-07-29T04:19:30;17.34;55.80
70830;SHT30;58451;51.550;7.208;2022-07-29T04:21:58;17.33;55.49
70830;SHT30;58451;51.550;7.208;2022-07-29T04:24:27;17.35;55.52
70830;SHT30;58451;51.550;7.208;2022-07-29T04:26:54;17.36;56.32
70830;SHT30;58451;51.550;7.208;2022-07-29T04:29:21;17.35;56.51
70830;SHT30;58451;51.550;7.208;2022-07-29T04:31:48;17.36;56.08
70830;SHT30;58451;51.550;7.208;2022-07-29T04:34:15;17.36;55.97
70830;SHT30;58451;51.550;7.208;2022-07-29T04:36:42;17.38;56.88
70830;SHT30;58451;51.550;7.208;2022-07-29T04:39:09;17.36;57.87
70830;SHT30;58451;51.550;7.208;2022-07-29T04:41:36;17.33;58.75
70830;SHT30;58451;51.550;7.208;2022-07-29T04:44:03;17.24;59.34
70830;SHT30;58451;51.550;7.208;2022-07-29T04:46:33;17.11;60.22
70830;SHT30;58451;51.550;7.208;2022-07-29T04:49:02;16.93;60.23
70830;SHT30;58451;51.550;7.208;2022-07-29T04:51:30;16.76;61.80
70830;SHT30;58451;51.550;7.208;2022-07-29T04:53:57;16.59;61.96
70830;SHT30;58451;51.550;7.208;2022-07-29T04:56:24;16.42;64.11
70830;SHT30;58451;51.550;7.208;2022-07-29T04:58:51;16.26;65.66
70830;SHT30;58451;51.550;7.208;2022-07-29T05:01:19;16.17;65.47
70830;SHT30;58451;51.550;7.208;2022-07-29T05:03:46;16.09;65.76
70830;SHT30;58451;51.550;7.208;2022-07-29T05:06:13;16.02;65.61
70830;SHT30;58451;51.550;7.208;2022-07-29T05:08:40;16.01;65.59
70830;SHT30;58451;51.550;7.208;2022-07-29T05:11:07;16.02;66.32
70830;SHT30;58451;51.550;7.208;2022-07-29T05:13:37;16.05;66.27
70830;SHT30;58451;51.550;7.208;2022-07-29T05:16:12;16.06;66.05
70830;SHT30;58451;51.550;7.208;2022-07-29T05:18:40;16.09;66.25
70830;SHT30;58451;51.550;7.208;2022-07-29T05:21:08;16.12;66.51
70830;SHT30;58451;51.550;7.208;2022-07-29T05:23:35;16.10;67.56
70830;SHT30;58451;51.550;7.208;2022-07-29T05:26:02;16.13;67.09
70830;SHT30;58451;51.550;7.208;2022-07-29T05:28:32;16.18;66.51
70830;SHT30;58451;51.550;7.208;2022-07-29T05:31:01;16.23;66.62
70830;SHT30;58451;51.550;7.208;2022-07-29T05:33:28;16.28;66.75
70830;SHT30;58451;51.550;7.208;2022-07-29T05:36:05;16.33;66.63
70830;SHT30;58451;51.550;7.208;2022-07-29T05:38:34;16.39;67.58
70830;SHT30;58451;51.550;7.208;2022-07-29T05:41:02;16.45;68.39
70830;SHT30;58451;51.550;7.208;2022-07-29T05:43:31;16.52;67.85
70830;SHT30;58451;51.550;7.208;2022-07-29T05:45:58;16.58;67.48
70830;SHT30;58451;51.550;7.208;2022-07-29T05:48:25;16.64;66.76
70830;SHT30;58451;51.550;7.208;2022-07-29T05:50:52;16.67;66.81
70830;SHT30;58451;51.550;7.208;2022-07-29T05:53:20;16.68;66.97
70830;SHT30;58451;51.550;7.208;2022-07-29T05:55:47;16.72;67.04
70830;SHT30;58451;51.550;7.208;2022-07-29T05:58:15;16.75;67.18
70830;SHT30;58451;51.550;7.208;2022-07-29T06:00:42;16.76;67.40
70830;SHT30;58451;51.550;7.208;2022-07-29T06:03:10;16.75;68.27
70830;SHT30;58451;51.550;7.208;2022-07-29T06:05:37;16.70;67.65
70830;SHT30;58451;51.550;7.208;2022-07-29T06:08:04;16.67;68.17
70830;SHT30;58451;51.550;7.208;2022-07-29T06:10:36;16.67;67.71
70830;SHT30;58451;51.550;7.208;2022-07-29T06:13:03;16.73;67.20
70830;SHT30;58451;51.550;7.208;2022-07-29T06:15:30;16.82;67.19
70830;SHT30;58451;51.550;7.208;2022-07-29T06:17:58;16.94;67.45
70830;SHT30;58451;51.550;7.208;2022-07-29T06:20:30;17.06;67.39
70830;SHT30;58451;51.550;7.208;2022-07-29T06:22:58;17.17;67.04
70830;SHT30;58451;51.550;7.208;2022-07-29T06:25:26;17.26;67.27
70830;SHT30;58451;51.550;7.208;2022-07-29T06:27:57;17.34;67.92
70830;SHT30;58451;51.550;7.208;2022-07-29T06:30:24;17.41;68.00
70830;SHT30;58451;51.550;7.208;2022-07-29T06:32:51;17.51;68.22
70830;SHT30;58451;51.550;7.208;2022-07-29T06:35:18;17.62;68.23
70830;SHT30;58451;51.550;7.208;2022-07-29T06:38:04;17.76;67.64
70830;SHT30;58451;51.550;7.208;2022-07-29T06:40:51;17.93;67.81
70830;SHT30;58451;51.550;7.208;2022-07-29T06:43:37;18.05;67.48
70830;SHT30;58451;51.550;7.208;2022-07-29T06:46:19;18.18;67.21
70830;SHT30;58451;51.550;7.208;2022-07-29T06:48:48;18.31;66.45
70830;SHT30;58451;51.550;7.208;2022-07-29T06:51:16;18.42;66.74
70830;SHT30;58451;51.550;7.208;2022-07-29T06:53:48;18.51;66.67
70830;SHT30;58451;51.550;7.208;2022-07-29T06:56:31;18.58;65.69
70830;SHT30;58451;51.550;7.208;2022-07-29T06:59:06;18.61;65.35
70830;SHT30;58451;51.550;7.208;2022-07-29T07:01:38;18.64;65.08
70830;SHT30;58451;51.550;7.208;2022-07-29T07:04:09;18.71;65.03
70830;SHT30;58451;51.550;7.208;2022-07-29T07:06:37;18.78;64.56
70830;SHT30;58451;51.550;7.208;2022-07-29T07:09:05;18.87;64.12
70830;SHT30;58451;51.550;7.208;2022-07-29T07:11:33;18.95;63.99
70830;SHT30;58451;51.550;7.208;2022-07-29T07:14:00;19.01;63.33
70830;SHT30;58451;51.550;7.208;2022-07-29T07:16:29;19.07;63.01
70830;SHT30;58451;51.550;7.208;2022-07-29T07:18:58;19.17;62.72
70830;SHT30;58451;51.550;7.208;2022-07-29T07:21:25;19.23;62.64
70830;SHT30;58451;51.550;7.208;2022-07-29T07:23:55;19.32;62.36
70830;SHT30;58451;51.550;7.208;2022-07-29T07:26:22;19.44;62.09
70830;SHT30;58451;51.550;7.208;2022-07-29T07:28:49;19.58;61.80
70830;SHT30;58451;51.550;7.208;2022-07-29T07:31:16;19.76;61.38
70830;SHT30;58451;51.550;7.208;2022-07-29T07:33:43;19.87;61.08
70830;SHT30;58451;51.550;7.208;2022-07-29T07:36:11;20.05;60.87
70830;SHT30;58451;51.550;7.208;2022-07-29T07:38:38;20.24;60.09
70830;SHT30;58451;51.550;7.208;2022-07-29T07:41:04;20.41;60.11
70830;SHT30;58451;51.550;7.208;2022-07-29T07:43:31;20.56;59.88
70830;SHT30;58451;51.550;7.208;2022-07-29T07:45:58;20.71;59.24
70830;SHT30;58451;51.550;7.208;2022-07-29T07:48:25;20.90;59.25
70830;SHT30;58451;51.550;7.208;2022-07-29T07:50:53;21.05;59.09
70830;SHT30;58451;51.550;7.208;2022-07-29T07:53:20;21.10;58.69
70830;SHT30;58451;51.550;7.208;2022-07-29T07:55:47;21.11;58.52
70830;SHT30;58451;51.550;7.208;2022-07-29T07:58:34;21.15;58.47
70830;SHT30;58451;51.550;7.208;2022-07-29T08:01:01;21.25;58.20
70830;SHT30;58451;51.550;7.208;2022-07-29T08:03:29;21.30;57.89
70830;SHT30;58451;51.550;7.208;2022-07-29T08:05:56;21.38;57.55
70830;SHT30;58451;51.550;7.208;2022-07-29T08:08:23;21.48;57.40
70830;SHT30;58451;51.550;7.208;2022-07-29T08:10:50;21.55;57.38
70830;SHT30;58451;51.550;7.208;2022-07-29T08:13:23;21.61;57.23
70830;SHT30;58451;51.550;7.208;2022-07-29T08:15:54;21.65;57.03
70830;SHT30;58451;51.550;7.208;2022-07-29T08:18:27;21.69;56.84
70830;SHT30;58451;51.550;7.208;2022-07-29T08:20:57;21.70;56.41
70830;SHT30;58451;51.550;7.208;2022-07-29T08:23:24;21.69;56.40
70830;SHT30;58451;51.550;7.208;2022-07-29T08:26:12;21.75;56.26
70830;SHT30;58451;51.550;7.208;2022-07-29T08:28:40;21.78;55.55
70830;SHT30;58451;51.550;7.208;2022-07-29T08:31:12;21.69;55.27
70830;SHT30;58451;51.550;7.208;2022-07-29T08:33:41;21.67;55.64
70830;SHT30;58451;51.550;7.208;2022-07-29T08:36:09;21.77;55.68
70830;SHT30;58451;51.550;7.208;2022-07-29T08:38:36;21.92;55.04
70830;SHT30;58451;51.550;7.208;2022-07-29T08:41:03;22.07;54.79
70830;SHT30;58451;51.550;7.208;2022-07-29T08:43:30;22.19;54.44
70830;SHT30;58451;51.550;7.208;2022-07-29T08:45:58;22.26;53.74
70830;SHT30;58451;51.550;7.208;2022-07-29T08:48:25;22.25;53.05
70830;SHT30;58451;51.550;7.208;2022-07-29T08:50:55;22.20;53.83
70830;SHT30;58451;51.550;7.208;2022-07-29T08:53:25;22.15;53.83
70830;SHT30;58451;51.550;7.208;2022-07-29T08:55:54;22.07;53.78
70830;SHT30;58451;51.550;7.208;2022-07-29T08:58:22;21.97;53.82
70830;SHT30;58451;51.550;7.208;2022-07-29T09:00:52;21.82;53.68
70830;SHT30;58451;51.550;7.208;2022-07-29T09:03:25;21.64;53.91
70830;SHT30;58451;51.550;7.208;2022-07-29T09:05:58;21.57;54.11
70830;SHT30;58451;51.550;7.208;2022-07-29T09:08:25;21.52;54.39
70830;SHT30;58451;51.550;7.208;2022-07-29T09:10:54;21.47;54.17
70830;SHT30;58451;51.550;7.208;2022-07-29T09:13:25;21.36;54.49
70830;SHT30;58451;51.550;7.208;2022-07-29T09:15:52;21.33;54.40
70830;SHT30;58451;51.550;7.208;2022-07-29T09:18:36;21.33;54.58
70830;SHT30;58451;51.550;7.208;2022-07-29T09:21:06;21.36;54.54
70830;SHT30;58451;51.550;7.208;2022-07-29T09:24:11;21.35;54.83
70830;SHT30;58451;51.550;7.208;2022-07-29T09:26:40;21.35;54.67
70830;SHT30;58451;51.550;7.208;2022-07-29T09:29:15;21.24;54.66
70830;SHT30;58451;51.550;7.208;2022-07-29T09:31:49;21.01;55.67
70830;SHT30;58451;51.550;7.208;2022-07-29T09:34:25;20.80;55.80
70830;SHT30;58451;51.550;7.208;2022-07-29T09:36:56;20.69;56.07
70830;SHT30;58451;51.550;7.208;2022-07-29T09:39:34;20.66;56.03
70830;SHT30;58451;51.550;7.208;2022-07-29T09:42:06;20.67;55.72
70830;SHT30;58451;51.550;7.208;2022-07-29T09:44:49;20.62;55.75
70830;SHT30;58451;51.550;7.208;2022-07-29T09:47:17;20.59;55.96
70830;SHT30;58451;51.550;7.208;2022-07-29T09:49:52;20.56;55.95
70830;SHT30;58451;51.550;7.208;2022-07-29T09:52:28;20.53;56.01
70830;SHT30;58451;51.550;7.208;2022-07-29T09:55:06;20.51;56.26
70830;SHT30;58451;51.550;7.208;2022-07-29T09:57:43;20.45;56.63
70830;SHT30;58451;51.550;7.208;2022-07-29T10:02:42;20.32;57.03
70830;SHT30;58451;51.550;7.208;2022-07-29T10:08:02;20.11;57.53
70830;SHT30;58451;51.550;7.208;2022-07-29T10:10:30;20.09;57.95
70830;SHT30;58451;51.550;7.208;2022-07-29T10:13:07;20.10;57.85
70830;SHT30;58451;51.550;7.208;2022-07-29T10:15:42;20.14;58.38
70830;SHT30;58451;51.550;7.208;2022-07-29T10:18:12;20.19;57.89
70830;SHT30;58451;51.550;7.208;2022-07-29T10:20:44;20.16;57.78
70830;SHT30;58451;51.550;7.208;2022-07-29T10:23:11;20.13;58.00
70830;SHT30;58451;51.550;7.208;2022-07-29T10:25:39;20.10;58.12
70830;SHT30;58451;51.550;7.208;2022-07-29T10:28:11;20.09;58.67
70830;SHT30;58451;51.550;7.208;2022-07-29T10:30:42;20.10;58.25
70830;SHT30;58451;51.550;7.208;2022-07-29T10:33:21;20.12;58.61
70830;SHT30;58451;51.550;7.208;2022-07-29T10:42:23;20.19;59.00
70830;SHT30;58451;51.550;7.208;2022-07-29T10:44:59;20.23;58.66
70830;SHT30;58451;51.550;7.208;2022-07-29T10:47:30;20.25;58.53
70830;SHT30;58451;51.550;7.208;2022-07-29T10:50:03;20.30;58.65
70830;SHT30;58451;51.550;7.208;2022-07-29T10:58:10;20.52;59.03
70830;SHT30;58451;51.550;7.208;2022-07-29T11:00:47;20.56;58.51
70830;SHT30;58451;51.550;7.208;2022-07-29T11:06:16;20.65;57.98
70830;SHT30;58451;51.550;7.208;2022-07-29T11:12:02;20.78;57.34
70830;SHT30;58451;51.550;7.208;2022-07-29T11:17:18;20.92;56.88
70830;SHT30;58451;51.550;7.208;2022-07-29T11:19:46;21.01;56.71
70830;SHT30;58451;51.550;7.208;2022-07-29T11:22:33;21.13;56.53
70830;SHT30;58451;51.550;7.208;2022-07-29T11:25:14;21.26;56.27
70830;SHT30;58451;51.550;7.208;2022-07-29T11:28:15;21.41;55.63
70830;SHT30;58451;51.550;7.208;2022-07-29T11:30:50;21.61;55.51
70830;SHT30;58451;51.550;7.208;2022-07-29T11:33:41;21.89;55.23
70830;SHT30;58451;51.550;7.208;2022-07-29T11:36:22;22.33;54.69
70830;SHT30;58451;51.550;7.208;2022-07-29T11:39:14;22.77;54.10
70830;SHT30;58451;51.550;7.208;2022-07-29T11:47:55;23.81;52.26
70830;SHT30;58451;51.550;7.208;2022-07-29T11:50:46;24.07;51.58
70830;SHT30;58451;51.550;7.208;2022-07-29T11:53:14;24.13;51.06
70830;SHT30;58451;51.550;7.208;2022-07-29T11:55:42;24.25;50.75
70830;SHT30;58451;51.550;7.208;2022-07-29T11:58:21;24.34;49.74
70830;SHT30;58451;51.550;7.208;2022-07-29T12:00:52;24.43;49.09
70830;SHT30;58451;51.550;7.208;2022-07-29T12:03:25;24.65;49.13
70830;SHT30;58451;51.550;7.208;2022-07-29T12:06:01;24.90;49.11
70830;SHT30;58451;51.550;7.208;2022-07-29T12:08:28;25.21;48.74
70830;SHT30;58451;51.550;7.208;2022-07-29T12:10:56;25.64;48.05
70830;SHT30;58451;51.550;7.208;2022-07-29T12:13:23;25.89;46.93
70830;SHT30;58451;51.550;7.208;2022-07-29T12:16:03;26.11;46.28
70830;SHT30;58451;51.550;7.208;2022-07-29T12:18:31;26.12;45.97
70830;SHT30;58451;51.550;7.208;2022-07-29T12:20:59;26.33;46.12
70830;SHT30;58451;51.550;7.208;2022-07-29T12:23:31;26.55;45.58
70830;SHT30;58451;51.550;7.208;2022-07-29T12:26:03;26.76;44.71
70830;SHT30;58451;51.550;7.208;2022-07-29T12:28:37;26.95;44.49
70830;SHT30;58451;51.550;7.208;2022-07-29T12:31:05;26.99;43.98
70830;SHT30;58451;51.550;7.208;2022-07-29T12:34:00;27.03;43.48
70830;SHT30;58451;51.550;7.208;2022-07-29T12:36:27;27.22;43.66
70830;SHT30;58451;51.550;7.208;2022-07-29T12:38:54;27.35;43.55
70830;SHT30;58451;51.550;7.208;2022-07-29T12:41:21;27.55;41.96
70830;SHT30;58451;51.550;7.208;2022-07-29T12:43:52;27.63;42.42
70830;SHT30;58451;51.550;7.208;2022-07-29T12:46:20;27.80;41.75
70830;SHT30;58451;51.550;7.208;2022-07-29T12:48:50;28.02;41.81
70830;SHT30;58451;51.550;7.208;2022-07-29T12:51:30;28.23;40.94
70830;SHT30;58451;51.550;7.208;2022-07-29T12:54:10;28.32;40.34
70830;SHT30;58451;51.550;7.208;2022-07-29T12:56:40;28.44;40.36
70830;SHT30;58451;51.550;7.208;2022-07-29T12:59:17;28.78;40.25
70830;SHT30;58451;51.550;7.208;2022-07-29T13:01:49;28.98;39.20
70830;SHT30;58451;51.550;7.208;2022-07-29T13:04:28;29.00;39.23
70830;SHT30;58451;51.550;7.208;2022-07-29T13:09:38;29.22;38.80
70830;SHT30;58451;51.550;7.208;2022-07-29T13:12:12;29.18;38.33
70830;SHT30;58451;51.550;7.208;2022-07-29T13:14:40;29.07;38.45
70830;SHT30;58451;51.550;7.208;2022-07-29T13:17:13;29.04;38.34
70830;SHT30;58451;51.550;7.208;2022-07-29T13:19:48;28.99;38.60
70830;SHT30;58451;51.550;7.208;2022-07-29T13:22:17;29.11;38.82
70830;SHT30;58451;51.550;7.208;2022-07-29T13:24:50;29.11;38.33
70830;SHT30;58451;51.550;7.208;2022-07-29T13:27:23;29.02;38.46
70830;SHT30;58451;51.550;7.208;2022-07-29T13:29:53;29.00;38.23
70830;SHT30;58451;51.550;7.208;2022-07-29T13:32:24;28.97;37.92
70830;SHT30;58451;51.550;7.208;2022-07-29T13:34:58;28.95;38.44
70830;SHT30;58451;51.550;7.208;2022-07-29T13:37:31;29.13;38.09
70830;SHT30;58451;51.550;7.208;2022-07-29T13:40:01;29.08;38.08
70830;SHT30;58451;51.550;7.208;2022-07-29T13:42:31;29.08;38.25
70830;SHT30;58451;51.550;7.208;2022-07-29T13:44:59;29.25;37.93
70830;SHT30;58451;51.550;7.208;2022-07-29T13:47:27;29.53;37.52
70830;SHT30;58451;51.550;7.208;2022-07-29T13:49:59;29.78;37.41
70830;SHT30;58451;51.550;7.208;2022-07-29T13:52:27;29.96;36.90
70830;SHT30;58451;51.550;7.208;2022-07-29T13:54:55;30.07;36.49
70830;SHT30;58451;51.550;7.208;2022-07-29T13:57:22;30.14;36.29
70830;SHT30;58451;51.550;7.208;2022-07-29T13:59:49;30.20;35.86
70830;SHT30;58451;51.550;7.208;2022-07-29T14:02:20;30.22;35.31
70830;SHT30;58451;51.550;7.208;2022-07-29T14:04:52;30.15;35.11
70830;SHT30;58451;51.550;7.208;2022-07-29T14:07:21;30.02;34.61
70830;SHT30;58451;51.550;7.208;2022-07-29T14:09:48;29.79;34.92
70830;SHT30;58451;51.550;7.208;2022-07-29T14:12:16;29.85;35.38
70830;SHT30;58451;51.550;7.208;2022-07-29T14:14:43;30.12;35.43
70830;SHT30;58451;51.550;7.208;2022-07-29T14:17:12;30.63;35.44
70830;SHT30;58451;51.550;7.208;2022-07-29T14:19:40;30.78;35.00
70830;SHT30;58451;51.550;7.208;2022-07-29T14:22:08;30.59;34.44
70830;SHT30;58451;51.550;7.208;2022-07-29T14:24:36;30.29;34.36
70830;SHT30;58451;51.550;7.208;2022-07-29T14:27:05;30.22;33.66
70830;SHT30;58451;51.550;7.208;2022-07-29T14:29:33;30.78;33.42
70830;SHT30;58451;51.550;7.208;2022-07-29T14:32:07;31.65;32.42
70830;SHT30;58451;51.550;7.208;2022-07-29T14:34:37;32.78;31.30
70830;SHT30;58451;51.550;7.208;2022-07-29T14:37:04;34.14;29.61
70830;SHT30;58451;51.550;7.208;2022-07-29T14:39:32;35.30;28.81
70830;SHT30;58451;51.550;7.208;2022-07-29T14:42:08;36.03;27.16
70830;SHT30;58451;51.550;7.208;2022-07-29T14:44:39;36.55;27.23
70830;SHT30;58451;51.550;7.208;2022-07-29T14:47:08;37.17;26.14
70830;SHT30;58451;51.550;7.208;2022-07-29T14:49:35;37.91;25.76
70830;SHT30;58451;51.550;7.208;2022-07-29T14:52:02;38.47;25.34
70830;SHT30;58451;51.550;7.208;2022-07-29T14:54:29;39.16;23.95
70830;SHT30;58451;51.550;7.208;2022-07-29T14:56:56;39.90;23.30
70830;SHT30;58451;51.550;7.208;2022-07-29T14:59:24;40.53;23.25
70830;SHT30;58451;51.550;7.208;2022-07-29T15:01:52;41.20;22.79
70830;SHT30;58451;51.550;7.208;2022-07-29T15:04:20;41.81;22.91
70830;SHT30;58451;51.550;7.208;2022-07-29T15:06:47;41.94;21.48
70830;SHT30;58451;51.550;7.208;2022-07-29T15:09:14;41.56;22.01
70830;SHT30;58451;51.550;7.208;2022-07-29T15:11:41;41.10;22.38
70830;SHT30;58451;51.550;7.208;2022-07-29T15:14:08;40.64;23.33
70830;SHT30;58451;51.550;7.208;2022-07-29T15:16:36;40.47;23.17
70830;SHT30;58451;51.550;7.208;2022-07-29T15:19:09;40.25;23.30
70830;SHT30;58451;51.550;7.208;2022-07-29T15:21:36;39.80;24.00
70830;SHT30;58451;51.550;7.208;2022-07-29T15:24:24;39.44;24.11
70830;SHT30;58451;51.550;7.208;2022-07-29T15:26:50;39.49;23.52
70830;SHT30;58451;51.550;7.208;2022-07-29T15:29:18;39.48;23.45
70830;SHT30;58451;51.550;7.208;2022-07-29T15:31:46;39.91;23.46
70830;SHT30;58451;51.550;7.208;2022-07-29T15:34:13;39.98;22.89
70830;SHT30;58451;51.550;7.208;2022-07-29T15:36:40;40.06;22.89
70830;SHT30;58451;51.550;7.208;2022-07-29T15:39:18;40.32;22.88
70830;SHT30;58451;51.550;7.208;2022-07-29T15:41:46;40.48;22.37
70830;SHT30;58451;51.550;7.208;2022-07-29T15:44:13;39.65;22.47
70830;SHT30;58451;51.550;7.208;2022-07-29T15:46:40;39.31;23.10
70830;SHT30;58451;51.550;7.208;2022-07-29T15:49:26;40.23;22.38
70830;SHT30;58451;51.550;7.208;2022-07-29T15:52:14;41.13;21.42
70830;SHT30;58451;51.550;7.208;2022-07-29T15:54:55;41.82;20.63
70830;SHT30;58451;51.550;7.208;2022-07-29T15:57:23;42.07;20.48
70830;SHT30;58451;51.550;7.208;2022-07-29T15:59:51;42.55;20.32
70830;SHT30;58451;51.550;7.208;2022-07-29T16:02:18;43.46;20.29
70830;SHT30;58451;51.550;7.208;2022-07-29T16:04:46;43.69;19.12
70830;SHT30;58451;51.550;7.208;2022-07-29T16:07:13;44.00;19.43
70830;SHT30;58451;51.550;7.208;2022-07-29T16:09:41;44.63;19.39
70830;SHT30;58451;51.550;7.208;2022-07-29T16:12:16;45.04;19.03
70830;SHT30;58451;51.550;7.208;2022-07-29T16:14:43;45.30;18.52
70830;SHT30;58451;51.550;7.208;2022-07-29T16:17:10;45.53;18.10
70830;SHT30;58451;51.550;7.208;2022-07-29T16:19:41;45.60;17.96
70830;SHT30;58451;51.550;7.208;2022-07-29T16:22:09;45.57;18.07
70830;SHT30;58451;51.550;7.208;2022-07-29T16:24:37;45.57;17.77
70830;SHT30;58451;51.550;7.208;2022-07-29T16:27:05;45.78;18.04
70830;SHT30;58451;51.550;7.208;2022-07-29T16:29:33;45.78;17.53
70830;SHT30;58451;51.550;7.208;2022-07-29T16:32:03;45.43;17.57
70830;SHT30;58451;51.550;7.208;2022-07-29T16:34:31;44.69;17.92
70830;SHT30;58451;51.550;7.208;2022-07-29T16:36:59;44.14;18.89
70830;SHT30;58451;51.550;7.208;2022-07-29T16:39:26;44.40;18.77
70830;SHT30;58451;51.550;7.208;2022-07-29T16:41:53;44.03;19.09
70830;SHT30;58451;51.550;7.208;2022-07-29T16:44:25;43.98;19.28
70830;SHT30;58451;51.550;7.208;2022-07-29T16:46:52;43.37;19.56
70830;SHT30;58451;51.550;7.208;2022-07-29T16:49:23;42.83;19.84